Terminal Aerodrome Forecast
Issued by NWS Duluth, MN

Home | Current Version | Previous Version | Text Only | Print | Product List | Glossary On
Versions: 1 2 3 4 5 6 7 8 9 10 11 12 13 14 15 16 17 18 19
000
FTUS43 KDLH 292337
TAFINL
TAF
KINL 292337Z 3000/3024 28012G24KT P6SM VCSH BKN080
     FM300300 29009KT P6SM SCT050
     FM301500 28012G22KT P6SM SCT040
     FM302100 29015G25KT P6SM VCSH OVC070=

USA.gov is the U.S. government's official web portal to all federal, state and local government web resources and services.